createdAt,value
2023-04-10T00:00:02.345Z,5.75
2023-04-10T00:01:02.285Z,4.79
2023-04-10T00:02:02.341Z,5.11
2023-04-10T00:03:02.507Z,5.43
2023-04-10T00:04:02.495Z,4.79
2023-04-10T00:05:02.296Z,3.82
2023-04-10T00:06:02.256Z,3.82
2023-04-10T00:07:02.220Z,5.11
2023-04-10T00:08:02.257Z,-0.37
2023-04-10T00:09:02.205Z,4.79
2023-04-10T00:10:02.281Z,5.11
2023-04-10T00:11:02.181Z,5.43
2023-04-10T00:12:02.186Z,5.43
2023-04-10T00:13:02.161Z,8.97
2023-04-10T00:14:02.189Z,0.60
2023-04-10T00:15:02.138Z,-0.05
2023-04-10T00:16:02.240Z,4.79
2023-04-10T00:17:02.222Z,4.79
2023-04-10T00:18:02.175Z,10.26
2023-04-10T00:19:02.098Z,-0.05
2023-04-10T00:20:02.190Z,4.79
2023-04-10T00:21:02.081Z,5.75
2023-04-10T00:22:02.080Z,5.11
2023-04-10T00:23:02.078Z,5.43
2023-04-10T00:24:02.068Z,5.75
2023-04-10T00:25:02.045Z,7.36
2023-04-10T00:26:02.069Z,-0.37
2023-04-10T00:27:02.031Z,11.55
2023-04-10T00:28:02.067Z,5.43
2023-04-10T00:29:02.037Z,6.40
2023-04-10T00:30:02.011Z,5.11
2023-04-10T00:31:01.977Z,4.46
2023-04-10T00:32:02.034Z,5.11
2023-04-10T00:33:01.999Z,2.21
2023-04-10T00:34:01.970Z,5.11
2023-04-10T00:35:01.942Z,5.11
2023-04-10T00:36:02.000Z,4.79
2023-04-10T00:37:01.954Z,5.11
2023-04-10T00:38:01.923Z,0.92
2023-04-10T00:39:01.917Z,4.79
2023-04-10T00:40:01.899Z,10.91
2023-04-10T00:41:01.981Z,5.43
2023-04-10T00:42:01.888Z,4.79
2023-04-10T00:43:01.856Z,5.11
2023-04-10T00:44:01.922Z,4.46
2023-04-10T00:45:01.838Z,4.46
2023-04-10T00:46:01.930Z,3.17
2023-04-10T00:47:01.817Z,6.40
2023-04-10T00:48:01.882Z,2.21
2023-04-10T00:49:01.786Z,4.79
2023-04-10T00:50:01.793Z,-1.98
2023-04-10T00:51:01.862Z,5.11
2023-04-10T00:52:01.783Z,0.92
2023-04-10T00:53:01.746Z,3.17
2023-04-10T00:54:01.793Z,4.46
2023-04-10T00:55:01.740Z,3.17
2023-04-10T00:56:01.781Z,4.46
2023-04-10T00:57:01.708Z,10.91
2023-04-10T00:58:01.756Z,1.24
2023-04-10T00:59:01.686Z,-1.02
2023-04-10T01:00:01.724Z,3.17
2023-04-10T01:01:01.695Z,4.79
2023-04-10T01:02:01.795Z,10.91
2023-04-10T01:03:01.951Z,3.17
2023-04-10T01:04:01.731Z,-0.05
2023-04-10T01:05:01.628Z,5.11
2023-04-10T01:06:01.647Z,4.14
2023-04-10T01:07:01.600Z,-0.69
2023-04-10T01:08:01.604Z,11.55
2023-04-10T01:09:01.588Z,4.79
2023-04-10T01:10:01.594Z,5.11
2023-04-10T01:11:01.557Z,4.46
2023-04-10T01:12:01.598Z,5.11
2023-04-10T01:13:01.570Z,1.56
2023-04-10T01:14:01.541Z,4.79
2023-04-10T01:15:01.541Z,4.14
2023-04-10T01:16:01.535Z,8.65
2023-04-10T01:17:01.521Z,4.46
2023-04-10T01:18:01.543Z,9.94
2023-04-10T01:19:01.469Z,0.27
2023-04-10T01:20:01.493Z,5.43
2023-04-10T01:21:01.454Z,0.60
2023-04-10T01:22:01.476Z,5.11
2023-04-10T01:23:01.432Z,6.72
2023-04-10T01:24:01.458Z,5.11
2023-04-10T01:25:01.405Z,4.46
2023-04-10T01:26:01.414Z,4.79
2023-04-10T01:27:01.383Z,5.11
2023-04-10T01:28:01.435Z,3.17
2023-04-10T01:29:01.443Z,10.26
2023-04-10T01:30:01.403Z,4.79
2023-04-10T01:31:01.403Z,4.14
2023-04-10T01:32:01.346Z,9.94
2023-04-10T01:33:01.344Z,4.14
2023-04-10T01:34:01.367Z,1.88
2023-04-10T01:35:01.317Z,3.50
2023-04-10T01:36:01.330Z,-0.05
2023-04-10T01:37:01.296Z,5.11
2023-04-10T01:38:01.283Z,-0.05
2023-04-10T01:39:01.264Z,3.82
2023-04-10T01:40:01.298Z,4.14
2023-04-10T01:41:01.255Z,9.94
2023-04-10T01:43:28.934Z,4.46
2023-04-10T01:43:34.435Z,4.14
2023-04-10T01:44:34.459Z,4.46
2023-04-10T01:45:34.408Z,8.33
2023-04-10T01:46:34.449Z,4.46
2023-04-10T01:47:34.415Z,4.46
2023-04-10T01:48:34.395Z,8.33
2023-04-10T01:49:34.368Z,4.14
2023-04-10T01:50:34.385Z,8.97
2023-04-10T01:51:34.352Z,-0.37
2023-04-10T01:52:34.374Z,4.46
2023-04-10T01:53:34.326Z,4.46
2023-04-10T01:54:34.353Z,4.46
2023-04-10T01:55:34.309Z,-1.66
2023-04-10T01:56:34.325Z,2.85
2023-04-10T01:57:34.288Z,10.26
2023-04-10T01:58:34.294Z,8.01
2023-04-10T01:59:34.266Z,4.14
2023-04-10T02:00:34.290Z,4.46
2023-04-10T02:01:34.309Z,8.97
2023-04-10T02:02:34.451Z,0.27
2023-04-10T02:03:34.542Z,4.46
2023-04-10T02:04:34.343Z,0.60
2023-04-10T02:05:34.222Z,4.79
2023-04-10T02:06:34.212Z,4.14
2023-04-10T02:07:34.194Z,4.46
2023-04-10T02:08:34.206Z,4.14
2023-04-10T02:09:34.163Z,-2.30
2023-04-10T02:10:34.171Z,4.14
2023-04-10T02:11:34.144Z,2.21
2023-04-10T02:12:34.179Z,10.26
2023-04-10T02:13:34.125Z,2.21
2023-04-10T02:14:34.147Z,8.65
2023-04-10T02:15:34.108Z,3.82
2023-04-10T02:16:34.141Z,3.82
2023-04-10T02:17:34.110Z,4.46
2023-04-10T02:18:34.118Z,-0.37
2023-04-10T02:19:34.094Z,2.85
2023-04-10T02:20:34.094Z,4.14
2023-04-10T02:21:34.043Z,4.46
2023-04-10T02:22:34.087Z,3.82
2023-04-10T02:23:34.021Z,3.82
2023-04-10T02:24:34.031Z,4.14
2023-04-10T02:25:34.042Z,4.14
2023-04-10T02:26:34.022Z,4.14
2023-04-10T02:27:33.977Z,8.33
2023-04-10T02:28:34.002Z,-0.37
2023-04-10T02:29:33.988Z,3.50
2023-04-10T02:30:33.981Z,3.50
2023-04-10T02:31:33.991Z,3.50
2023-04-10T02:32:34.019Z,7.69
2023-04-10T02:33:33.932Z,3.82
2023-04-10T02:34:33.962Z,0.60
2023-04-10T02:35:33.915Z,4.14
2023-04-10T02:36:33.925Z,2.21
2023-04-10T02:37:33.881Z,3.50
2023-04-10T02:38:33.902Z,-0.69
2023-04-10T02:39:33.866Z,4.14
2023-04-10T02:40:33.890Z,3.82
2023-04-10T02:41:33.837Z,-8.75
2023-04-10T02:42:33.857Z,4.14
2023-04-10T02:43:33.824Z,3.50
2023-04-10T02:44:33.842Z,4.14
2023-04-10T02:45:33.812Z,9.30
2023-04-10T02:46:33.866Z,3.82
2023-04-10T02:47:33.802Z,3.82
2023-04-10T02:48:33.799Z,3.82
2023-04-10T02:49:33.781Z,3.82
2023-04-10T02:50:33.786Z,-0.05
2023-04-10T02:51:33.739Z,3.82
2023-04-10T02:52:33.750Z,8.33
2023-04-10T02:53:33.723Z,4.46
2023-04-10T02:54:33.736Z,-1.98
2023-04-10T02:55:33.711Z,8.01
2023-04-10T02:56:33.720Z,4.79
2023-04-10T02:57:33.675Z,4.46
2023-04-10T02:58:33.695Z,-1.66
2023-04-10T02:59:33.651Z,-1.98
2023-04-10T03:00:33.660Z,-2.30
2023-04-10T03:01:33.787Z,3.82
2023-04-10T03:02:33.785Z,3.50
2023-04-10T03:03:33.666Z,3.82
2023-04-10T03:04:33.711Z,9.62
2023-04-10T03:05:33.602Z,3.50
2023-04-10T03:06:32.599Z,8.33
2023-04-10T03:07:33.582Z,5.43
2023-04-10T03:08:33.596Z,10.26
2023-04-10T03:09:33.573Z,3.82
2023-04-10T03:10:33.567Z,4.14
2023-04-10T03:11:33.533Z,3.82
2023-04-10T03:12:33.548Z,-2.63
2023-04-10T03:13:33.517Z,-1.98
2023-04-10T03:14:33.538Z,3.50
2023-04-10T03:15:33.511Z,3.50
2023-04-10T03:16:33.629Z,3.50
2023-04-10T03:17:33.506Z,0.92
2023-04-10T03:18:33.494Z,-0.37
2023-04-10T03:19:33.457Z,4.46
2023-04-10T03:20:33.468Z,-1.98
2023-04-10T03:21:33.433Z,2.53
2023-04-10T03:22:33.450Z,3.50
2023-04-10T03:23:33.437Z,3.50
2023-04-10T03:24:33.433Z,3.82
2023-04-10T03:25:33.396Z,3.17
2023-04-10T03:26:33.410Z,13.49
2023-04-10T03:27:33.375Z,-2.95
2023-04-10T03:28:33.409Z,-2.30
2023-04-10T03:29:33.368Z,1.56
2023-04-10T03:30:33.380Z,3.17
2023-04-10T03:31:33.390Z,-0.05
2023-04-10T03:32:33.352Z,3.50
2023-04-10T03:33:33.411Z,2.85
2023-04-10T03:34:33.333Z,-1.66
2023-04-10T03:35:33.310Z,3.17
2023-04-10T03:36:33.316Z,2.85
2023-04-10T03:37:33.274Z,8.01
2023-04-10T03:38:33.300Z,10.26
2023-04-10T03:39:33.268Z,-1.98
2023-04-10T03:40:33.287Z,2.53
2023-04-10T03:41:33.249Z,3.50
2023-04-10T03:42:33.244Z,8.65
2023-04-10T03:43:33.227Z,3.17
2023-04-10T03:44:33.237Z,3.17
2023-04-10T03:45:33.202Z,4.79
2023-04-10T03:46:33.222Z,3.82
2023-04-10T03:47:33.212Z,3.50
2023-04-10T03:48:33.193Z,3.82
2023-04-10T03:49:33.157Z,8.33
2023-04-10T03:50:33.162Z,3.17
2023-04-10T03:51:33.151Z,3.50
2023-04-10T03:52:33.142Z,3.17
2023-04-10T03:53:34.961Z,3.17
2023-04-10T03:54:33.145Z,2.53
2023-04-10T03:55:33.114Z,6.40
2023-04-10T03:56:33.117Z,6.07
2023-04-10T03:57:33.077Z,3.50
2023-04-10T03:58:33.099Z,-0.69
2023-04-10T03:59:38.555Z,8.97
2023-04-10T04:00:33.076Z,3.17
2023-04-10T04:01:33.083Z,3.50
2023-04-10T04:02:33.159Z,3.82
2023-04-10T04:03:33.217Z,3.82
2023-04-10T04:04:33.224Z,3.17
2023-04-10T04:05:33.021Z,-2.95
2023-04-10T04:06:33.002Z,2.85
2023-04-10T04:07:32.919Z,3.17
2023-04-10T04:08:32.997Z,3.17
2023-04-10T04:09:32.914Z,3.50
2023-04-10T04:10:32.922Z,3.50
2023-04-10T04:11:32.959Z,2.85
2023-04-10T04:12:32.934Z,-1.34
2023-04-10T04:13:32.960Z,2.85
2023-04-10T04:14:32.860Z,3.17
2023-04-10T04:15:32.925Z,-1.34
2023-04-10T04:16:32.932Z,3.17
2023-04-10T04:17:32.877Z,3.17
2023-04-10T04:18:32.814Z,8.33
2023-04-10T04:19:32.812Z,7.04
2023-04-10T04:20:32.795Z,3.50
2023-04-10T04:21:32.807Z,2.53
2023-04-10T04:22:32.787Z,3.82
2023-04-10T04:23:32.775Z,3.17
2023-04-10T04:24:32.759Z,3.17
2023-04-10T04:25:32.771Z,3.50
2023-04-10T04:26:32.762Z,2.85
2023-04-10T04:27:32.743Z,2.85
2023-04-10T04:28:32.721Z,8.01
2023-04-10T04:29:32.713Z,3.50
2023-04-10T04:30:32.688Z,2.53
2023-04-10T04:31:32.965Z,3.50
2023-04-10T04:32:32.711Z,-0.69
2023-04-10T04:33:32.683Z,-1.98
2023-04-10T04:34:32.645Z,3.50
2023-04-10T04:35:32.693Z,7.04
2023-04-10T04:36:32.634Z,4.79
2023-04-10T04:37:32.646Z,2.85
2023-04-10T04:38:32.619Z,3.17
2023-04-10T04:39:32.611Z,-1.66
2023-04-10T04:40:32.596Z,-1.98
2023-04-10T04:41:32.790Z,9.30
2023-04-10T04:42:32.572Z,3.50
2023-04-10T04:43:32.588Z,2.53
2023-04-10T04:44:32.544Z,3.17
2023-04-10T04:45:32.564Z,8.33
2023-04-10T04:46:32.549Z,2.85
2023-04-10T04:47:32.569Z,-2.63
2023-04-10T04:48:32.523Z,0.92
2023-04-10T04:49:32.525Z,6.72
2023-04-10T04:50:32.498Z,8.01
2023-04-10T04:51:32.510Z,6.07
2023-04-10T04:52:32.464Z,3.17
2023-04-10T04:53:32.472Z,7.36
2023-04-10T04:54:32.464Z,3.17
2023-04-10T04:55:32.463Z,3.17
2023-04-10T04:56:32.427Z,3.82
2023-04-10T04:57:32.432Z,5.75
2023-04-10T04:58:32.414Z,2.85
2023-04-10T04:59:32.434Z,-1.98
2023-04-10T05:00:32.401Z,-1.66
2023-04-10T05:01:32.453Z,3.50
2023-04-10T05:02:32.515Z,2.85
2023-04-10T05:03:32.504Z,2.85
2023-04-10T05:04:32.352Z,1.88
2023-04-10T05:05:32.374Z,-1.34
2023-04-10T05:06:32.346Z,2.85
2023-04-10T05:07:32.349Z,3.17
2023-04-10T05:08:32.304Z,6.07
2023-04-10T05:09:32.324Z,9.30
2023-04-10T05:10:32.283Z,3.82
2023-04-10T05:11:32.305Z,3.17
2023-04-10T05:12:32.276Z,3.17
2023-04-10T05:13:32.310Z,7.69
2023-04-10T05:14:32.240Z,3.82
2023-04-10T05:15:32.305Z,3.17
2023-04-10T05:16:32.236Z,3.50
2023-04-10T05:17:32.311Z,1.56
2023-04-10T05:18:32.208Z,-2.95
2023-04-10T05:19:32.219Z,7.36
2023-04-10T05:20:32.194Z,2.85
2023-04-10T05:21:32.208Z,4.46
2023-04-10T05:22:32.171Z,-1.34
2023-04-10T05:23:32.202Z,8.01
2023-04-10T05:24:32.142Z,3.17
2023-04-10T05:25:32.162Z,6.72
2023-04-10T05:26:32.129Z,3.17
2023-04-10T05:27:32.133Z,-0.05
2023-04-10T05:28:32.114Z,-0.05
2023-04-10T05:29:32.134Z,2.85
2023-04-10T05:30:32.118Z,3.17
2023-04-10T05:31:32.109Z,7.36
2023-04-10T05:32:32.154Z,2.85
2023-04-10T05:33:32.102Z,-2.95
2023-04-10T05:34:32.044Z,-1.66
2023-04-10T05:35:32.113Z,2.85
2023-04-10T05:36:32.025Z,2.85
2023-04-10T05:37:32.033Z,-3.92
2023-04-10T05:38:32.019Z,3.17
2023-04-10T05:39:32.031Z,3.50
2023-04-10T05:40:32.005Z,2.85
2023-04-10T05:41:32.017Z,3.82
2023-04-10T05:42:31.966Z,7.69
2023-04-10T05:43:31.991Z,2.85
2023-04-10T05:44:31.963Z,2.85
2023-04-10T05:45:31.956Z,0.92
2023-04-10T05:46:31.952Z,-1.98
2023-04-10T05:47:32.003Z,3.50
2023-04-10T05:48:31.922Z,3.50
2023-04-10T05:49:31.922Z,-0.05
2023-04-10T05:50:31.893Z,3.17
2023-04-10T05:51:31.923Z,2.21
2023-04-10T05:52:31.875Z,3.50
2023-04-10T05:53:31.894Z,3.17
2023-04-10T05:54:31.858Z,3.50
2023-04-10T05:55:31.854Z,-1.66
2023-04-10T05:56:31.827Z,3.50
2023-04-10T05:57:31.847Z,-2.30
2023-04-10T05:58:31.808Z,3.50
2023-04-10T05:59:31.832Z,3.50
2023-04-10T06:00:31.792Z,4.46
2023-04-10T06:01:31.793Z,3.50
2023-04-10T06:02:31.927Z,3.82
2023-04-10T06:03:31.901Z,3.50
2023-04-10T06:04:32.013Z,2.21
2023-04-10T06:05:31.749Z,0.27
2023-04-10T06:06:31.725Z,8.33
2023-04-10T06:07:31.746Z,-2.30
2023-04-10T06:08:31.701Z,3.82
2023-04-10T06:09:31.737Z,4.14
2023-04-10T06:10:31.677Z,4.14
2023-04-10T06:11:31.683Z,3.82
2023-04-10T06:12:31.652Z,4.46
2023-04-10T06:13:31.677Z,-0.05
2023-04-10T06:14:31.638Z,3.50
2023-04-10T06:15:31.672Z,4.46
2023-04-10T06:16:31.684Z,4.79
2023-04-10T06:17:31.681Z,4.46
2023-04-10T06:18:31.602Z,4.46
2023-04-10T06:19:31.616Z,4.46
2023-04-10T06:20:31.573Z,-1.34
2023-04-10T06:21:31.582Z,4.14
2023-04-10T06:22:31.551Z,-1.02
2023-04-10T06:23:31.572Z,4.79
2023-04-10T06:24:31.535Z,8.65
2023-04-10T06:25:31.562Z,4.79
2023-04-10T06:26:31.518Z,10.59
2023-04-10T06:27:31.516Z,-0.69
2023-04-10T06:28:31.509Z,4.46
2023-04-10T06:29:31.516Z,4.46
2023-04-10T06:30:31.477Z,4.46
2023-04-10T06:31:31.516Z,4.79
2023-04-10T06:32:31.495Z,11.23
2023-04-10T06:33:31.505Z,1.56
2023-04-10T06:34:31.439Z,10.59
2023-04-10T06:35:31.520Z,5.43
2023-04-10T06:36:31.407Z,4.79
2023-04-10T06:37:31.489Z,0.60
2023-04-10T06:38:31.400Z,10.59
2023-04-10T06:39:31.407Z,5.11
2023-04-10T06:40:31.367Z,4.79
2023-04-10T06:41:31.392Z,0.27
2023-04-10T06:42:31.349Z,4.14
2023-04-10T06:43:31.358Z,3.17
2023-04-10T06:44:31.333Z,3.82
2023-04-10T06:45:31.359Z,5.43
2023-04-10T06:46:31.372Z,5.75
2023-04-10T06:47:31.336Z,3.82
2023-04-10T06:48:31.280Z,5.75
2023-04-10T06:49:31.314Z,5.43
2023-04-10T06:50:33.333Z,10.91
2023-04-10T06:51:31.284Z,5.75
2023-04-10T06:52:31.246Z,8.97
2023-04-10T06:53:31.264Z,4.79
2023-04-10T06:54:31.225Z,8.97
2023-04-10T06:55:31.228Z,8.65
2023-04-10T06:56:31.200Z,2.21
2023-04-10T06:57:31.233Z,5.75
2023-04-10T06:58:31.257Z,8.33
2023-04-10T06:59:31.184Z,5.11
2023-04-10T07:00:31.187Z,15.42
2023-04-10T07:01:31.162Z,0.92
2023-04-10T07:02:31.216Z,11.87
2023-04-10T07:03:31.167Z,6.07
2023-04-10T07:04:31.112Z,5.43
2023-04-10T07:05:31.133Z,5.75
2023-04-10T07:06:31.095Z,4.46
2023-04-10T07:07:31.119Z,9.62
2023-04-10T07:08:31.070Z,11.55
2023-04-10T07:09:31.077Z,5.75
2023-04-10T07:10:31.049Z,6.72
2023-04-10T07:11:31.077Z,11.55
2023-04-10T07:12:31.026Z,6.40
2023-04-10T07:13:31.060Z,12.20
2023-04-10T07:14:31.013Z,6.07
2023-04-10T07:15:31.013Z,6.40
2023-04-10T07:16:31.020Z,6.72
2023-04-10T07:17:31.019Z,12.52
2023-04-10T07:18:30.971Z,6.72
2023-04-10T07:19:31.015Z,12.84
2023-04-10T07:20:30.945Z,8.97
2023-04-10T07:21:30.964Z,7.36
2023-04-10T07:22:30.924Z,6.72
2023-04-10T07:23:30.952Z,9.94
2023-04-10T07:24:30.903Z,3.17
2023-04-10T07:25:30.928Z,0.92
2023-04-10T07:26:30.881Z,7.36
2023-04-10T07:27:30.900Z,0.60
2023-04-10T07:28:30.853Z,7.69
2023-04-10T07:29:30.901Z,14.45
2023-04-10T07:30:30.836Z,7.36
2023-04-10T07:31:30.986Z,12.84
2023-04-10T07:32:30.938Z,6.72
2023-04-10T07:33:30.866Z,10.91
2023-04-10T07:34:30.796Z,7.36
2023-04-10T07:35:30.903Z,2.85
2023-04-10T07:36:30.779Z,12.20
2023-04-10T07:37:30.810Z,4.79
2023-04-10T07:38:30.752Z,8.01
2023-04-10T07:39:30.757Z,8.97
2023-04-10T07:40:30.731Z,8.01
2023-04-10T07:41:30.758Z,16.71
2023-04-10T07:42:30.709Z,8.33
2023-04-10T07:43:30.722Z,8.01
2023-04-10T07:44:30.689Z,8.33
2023-04-10T07:45:30.706Z,12.20
2023-04-10T07:46:30.678Z,11.23
2023-04-10T07:47:30.707Z,11.87
2023-04-10T07:48:30.653Z,8.97
2023-04-10T07:49:30.665Z,9.30
2023-04-10T07:50:30.643Z,14.13
2023-04-10T07:51:30.647Z,8.97
2023-04-10T07:52:30.602Z,15.42
2023-04-10T07:53:30.622Z,8.97
2023-04-10T07:54:30.579Z,9.30
2023-04-10T07:55:30.610Z,9.30
2023-04-10T07:56:30.576Z,8.65
2023-04-10T07:57:30.578Z,8.65
2023-04-10T07:58:30.547Z,2.53
2023-04-10T07:59:30.569Z,9.62
2023-04-10T08:00:30.514Z,5.43
2023-04-10T08:01:30.556Z,15.42
2023-04-10T08:02:30.680Z,15.10
2023-04-10T08:03:30.668Z,6.07
2023-04-10T08:04:30.705Z,11.87
2023-04-10T08:05:30.540Z,9.62
2023-04-10T08:06:30.454Z,9.30
2023-04-10T08:07:30.475Z,9.62
2023-04-10T08:08:30.445Z,9.62
2023-04-10T08:09:30.434Z,9.30
2023-04-10T08:10:30.415Z,9.94
2023-04-10T08:11:30.415Z,15.74
2023-04-10T08:12:30.403Z,10.26
2023-04-10T08:13:30.396Z,9.94
2023-04-10T08:14:30.363Z,10.59
2023-04-10T08:15:30.392Z,10.26
2023-04-10T08:16:30.379Z,9.94
2023-04-10T08:17:30.405Z,10.91
2023-04-10T08:18:30.332Z,15.74
2023-04-10T08:19:30.344Z,4.14
2023-04-10T08:20:30.297Z,4.46
2023-04-10T08:21:30.304Z,10.26
2023-04-10T08:22:30.270Z,9.62
2023-04-10T08:23:30.331Z,4.79
2023-04-10T08:24:30.262Z,9.62
2023-04-10T08:25:30.310Z,10.91
2023-04-10T08:26:30.232Z,9.94
2023-04-10T08:27:30.271Z,10.59
2023-04-10T08:28:30.239Z,10.59
2023-04-10T08:29:30.215Z,11.23
2023-04-10T08:30:30.254Z,6.40
2023-04-10T08:31:30.296Z,15.10
2023-04-10T08:32:30.235Z,9.62
2023-04-10T08:33:30.163Z,10.59
2023-04-10T08:34:30.273Z,10.91
2023-04-10T08:35:30.149Z,13.16
2023-04-10T08:36:30.143Z,10.91
2023-04-10T08:37:30.115Z,6.07
2023-04-10T08:38:30.118Z,18.96
2023-04-10T08:39:30.096Z,10.59
2023-04-10T08:40:30.128Z,11.55
2023-04-10T08:41:30.087Z,17.03
2023-04-10T08:42:30.085Z,14.45
2023-04-10T08:43:30.071Z,11.55
2023-04-10T08:44:30.072Z,11.55
2023-04-10T08:45:30.029Z,11.55
2023-04-10T08:46:30.140Z,11.55
2023-04-10T08:47:30.027Z,9.30
2023-04-10T08:48:30.046Z,11.23
2023-04-10T08:49:29.991Z,11.55
2023-04-10T08:50:29.995Z,12.52
2023-04-10T08:51:29.967Z,14.13
2023-04-10T08:52:29.970Z,12.52
2023-04-10T08:53:29.946Z,12.20
2023-04-10T08:54:29.960Z,11.87
2023-04-10T08:55:29.938Z,16.71
2023-04-10T08:56:29.928Z,12.20
2023-04-10T08:57:29.904Z,17.68
2023-04-10T08:58:29.939Z,13.16
2023-04-10T08:59:29.890Z,11.55
2023-04-10T09:00:29.898Z,10.59
2023-04-10T09:01:29.900Z,12.20
2023-04-10T09:02:30.083Z,12.20
2023-04-10T09:03:30.127Z,16.06
2023-04-10T09:04:29.958Z,11.87
2023-04-10T09:05:29.825Z,14.78
2023-04-10T09:06:29.844Z,6.40
2023-04-10T09:07:29.837Z,17.68
2023-04-10T09:08:29.798Z,18.64
2023-04-10T09:09:29.777Z,8.65
2023-04-10T09:10:29.790Z,13.16
2023-04-10T09:11:29.753Z,12.52
2023-04-10T09:12:29.787Z,11.23
2023-04-10T09:13:29.735Z,12.84
2023-04-10T09:14:29.856Z,12.84
2023-04-10T09:15:29.712Z,12.52
2023-04-10T09:16:29.927Z,13.16
2023-04-10T09:17:29.731Z,8.01
2023-04-10T09:18:29.708Z,12.84
2023-04-10T09:19:29.684Z,13.49
2023-04-10T09:20:29.699Z,16.71
2023-04-10T09:21:29.656Z,13.49
2023-04-10T09:22:29.665Z,14.13
2023-04-10T09:23:29.638Z,8.33
2023-04-10T09:24:29.638Z,13.81
2023-04-10T09:25:29.605Z,9.30
2023-04-10T09:26:29.660Z,13.16
2023-04-10T09:27:29.586Z,10.26
2023-04-10T09:28:29.617Z,14.13
2023-04-10T09:29:29.568Z,10.59
2023-04-10T09:30:29.585Z,14.13
2023-04-10T09:31:29.555Z,14.78
2023-04-10T09:32:29.569Z,19.29
2023-04-10T09:33:29.522Z,14.45
2023-04-10T09:34:29.542Z,14.45
2023-04-10T09:35:29.516Z,15.10
2023-04-10T09:36:29.516Z,15.10
2023-04-10T09:37:29.475Z,15.10
2023-04-10T09:38:29.496Z,14.78
2023-04-10T09:39:29.455Z,12.20
2023-04-10T09:40:29.485Z,9.62
2023-04-10T09:41:29.435Z,15.10
2023-04-10T09:42:29.455Z,19.29
2023-04-10T09:43:29.431Z,15.42
2023-04-10T09:44:29.428Z,14.78
2023-04-10T09:45:29.427Z,14.78
2023-04-10T09:46:29.429Z,15.10
2023-04-10T09:47:29.396Z,15.10
2023-04-10T09:48:29.399Z,15.10
2023-04-10T09:49:29.347Z,15.42
2023-04-10T09:50:29.368Z,15.10
2023-04-10T09:51:29.326Z,15.10
2023-04-10T09:52:29.338Z,10.59
2023-04-10T09:53:29.319Z,11.23
2023-04-10T09:54:29.334Z,15.42
2023-04-10T09:55:29.286Z,16.06
2023-04-10T09:56:29.325Z,15.42
2023-04-10T09:57:29.281Z,15.74
2023-04-10T09:58:29.272Z,15.74
2023-04-10T09:59:29.249Z,11.87
2023-04-10T10:00:29.257Z,11.23
2023-04-10T10:01:29.248Z,16.39
2023-04-10T10:02:29.373Z,8.01
2023-04-10T10:03:29.382Z,16.06
2023-04-10T10:04:29.229Z,16.39
2023-04-10T10:05:29.181Z,16.39
2023-04-10T10:06:35.710Z,13.16
2023-04-10T10:07:29.180Z,16.71
2023-04-10T10:08:29.196Z,13.49
2023-04-10T10:09:29.444Z,17.35
2023-04-10T10:10:29.169Z,16.39
2023-04-10T10:11:29.154Z,16.71
2023-04-10T10:12:29.157Z,20.58
2023-04-10T10:13:29.096Z,17.03
2023-04-10T10:14:29.151Z,16.71
2023-04-10T10:15:29.078Z,19.93
2023-04-10T10:16:29.133Z,11.55
2023-04-10T10:17:29.137Z,17.35
2023-04-10T10:18:29.080Z,17.35
2023-04-10T10:19:29.039Z,22.19
2023-04-10T10:20:29.053Z,17.35
2023-04-10T10:21:29.020Z,17.03
2023-04-10T10:22:29.042Z,12.20
2023-04-10T10:23:29.001Z,12.52
2023-04-10T10:24:29.025Z,17.03
2023-04-10T10:25:28.973Z,17.68
2023-04-10T10:26:29.003Z,12.84
2023-04-10T10:27:28.958Z,17.68
2023-04-10T10:28:29.003Z,12.84
2023-04-10T10:29:28.943Z,12.84
2023-04-10T10:30:30.389Z,18.32
2023-04-10T10:31:28.951Z,18.00
2023-04-10T10:32:28.956Z,18.00
2023-04-10T10:33:28.894Z,17.68
2023-04-10T10:34:28.958Z,18.64
2023-04-10T10:35:30.055Z,17.35
2023-04-10T10:36:28.919Z,17.68
2023-04-10T10:37:28.857Z,18.32
2023-04-10T10:38:28.874Z,18.32
2023-04-10T10:39:28.841Z,16.39
2023-04-10T10:40:28.869Z,20.90
2023-04-10T10:41:28.829Z,22.51
2023-04-10T10:42:28.828Z,16.39
2023-04-10T10:43:28.799Z,21.54
2023-04-10T10:44:28.816Z,23.80
2023-04-10T10:45:28.811Z,15.10
2023-04-10T10:46:28.808Z,15.74
2023-04-10T10:47:28.774Z,18.96
2023-04-10T10:48:28.758Z,18.00
2023-04-10T10:49:28.734Z,15.42
2023-04-10T10:50:28.747Z,18.64
2023-04-10T10:51:28.718Z,23.48
2023-04-10T10:52:28.732Z,18.32
2023-04-10T10:53:28.706Z,18.32
2023-04-10T10:54:28.694Z,25.09
2023-04-10T10:55:28.680Z,24.12
2023-04-10T10:56:28.688Z,14.78
2023-04-10T10:57:28.651Z,19.29
2023-04-10T10:58:28.652Z,19.29
2023-04-10T10:59:28.622Z,19.61
2023-04-10T11:00:28.657Z,19.29
2023-04-10T11:01:28.725Z,18.96
2023-04-10T11:02:28.737Z,19.61
2023-04-10T11:03:28.842Z,12.84
2023-04-10T11:04:28.613Z,19.61
2023-04-10T11:05:28.595Z,25.41
2023-04-10T11:06:28.615Z,24.12
2023-04-10T11:07:28.546Z,20.25
2023-04-10T11:08:28.574Z,20.25
2023-04-10T11:09:28.552Z,20.25
2023-04-10T11:10:28.552Z,12.52
2023-04-10T11:11:28.547Z,20.25
2023-04-10T11:12:28.568Z,19.93
2023-04-10T11:13:28.499Z,19.93
2023-04-10T11:14:28.491Z,14.13
2023-04-10T11:15:28.470Z,24.44
2023-04-10T11:16:28.506Z,25.41
2023-04-10T11:17:28.477Z,20.58
2023-04-10T11:18:28.471Z,20.58
2023-04-10T11:19:28.633Z,20.58
2023-04-10T11:20:28.443Z,24.44
2023-04-10T11:21:28.404Z,20.90
2023-04-10T11:22:28.409Z,25.73
2023-04-10T11:23:28.382Z,25.41
2023-04-10T11:24:28.409Z,23.15
2023-04-10T11:25:28.366Z,16.06
2023-04-10T11:26:28.379Z,20.58
2023-04-10T11:27:28.345Z,17.68
2023-04-10T11:28:28.357Z,20.58
2023-04-10T11:29:28.326Z,20.90
2023-04-10T11:30:28.330Z,20.25
2023-04-10T11:31:28.323Z,20.25
2023-04-10T11:32:28.353Z,14.78
2023-04-10T11:33:28.279Z,16.71
2023-04-10T11:34:28.305Z,24.44
2023-04-10T11:35:28.291Z,20.90
2023-04-10T11:36:28.272Z,16.06
2023-04-10T11:37:28.230Z,21.54
2023-04-10T11:38:28.255Z,26.05
2023-04-10T11:39:28.218Z,21.87
2023-04-10T11:40:28.240Z,16.06
2023-04-10T11:41:28.198Z,21.54
2023-04-10T11:42:28.236Z,21.54
2023-04-10T11:43:28.186Z,17.68
2023-04-10T11:44:28.184Z,21.22
2023-04-10T11:45:28.170Z,17.35
2023-04-10T11:46:28.222Z,20.90
2023-04-10T11:47:28.142Z,20.90
2023-04-10T11:48:28.147Z,23.80
2023-04-10T11:49:28.114Z,21.22
2023-04-10T11:50:28.125Z,26.05
2023-04-10T11:51:28.102Z,17.35
2023-04-10T11:52:28.104Z,21.87
2023-04-10T11:53:28.068Z,27.02
2023-04-10T11:54:28.083Z,21.87
2023-04-10T11:55:28.044Z,22.19
2023-04-10T11:56:28.063Z,21.54
2023-04-10T11:57:28.032Z,21.54
2023-04-10T11:58:28.043Z,21.87
2023-04-10T11:59:27.997Z,21.87
2023-04-10T12:00:28.026Z,21.87
2023-04-10T12:01:27.978Z,17.68
2023-04-10T12:02:28.103Z,19.93
2023-04-10T12:03:28.035Z,21.54
2023-04-10T12:04:28.289Z,16.06
2023-04-10T12:05:27.952Z,21.54
2023-04-10T12:06:27.940Z,21.87
2023-04-10T12:07:27.928Z,21.22
2023-04-10T12:08:27.934Z,21.87
2023-04-10T12:09:27.893Z,21.22
2023-04-10T12:10:27.901Z,15.10
2023-04-10T12:11:27.880Z,30.89
2023-04-10T12:12:27.905Z,25.73
2023-04-10T12:13:27.867Z,21.54
2023-04-10T12:14:27.856Z,21.87
2023-04-10T12:15:27.881Z,29.92
2023-04-10T12:16:27.867Z,22.19
2023-04-10T12:17:27.833Z,21.22
2023-04-10T12:18:27.830Z,17.68
2023-04-10T12:19:27.791Z,21.22
2023-04-10T12:20:27.803Z,26.38
2023-04-10T12:21:27.774Z,22.19
2023-04-10T12:22:27.777Z,21.54
2023-04-10T12:23:27.769Z,22.19
2023-04-10T12:24:27.789Z,15.42
2023-04-10T12:25:27.732Z,27.99
2023-04-10T12:26:27.753Z,21.87
2023-04-10T12:27:27.786Z,27.99
2023-04-10T12:28:27.723Z,23.15
2023-04-10T12:29:27.711Z,22.51
2023-04-10T12:30:27.708Z,18.64
2023-04-10T12:31:27.744Z,27.34
2023-04-10T12:32:27.893Z,22.51
2023-04-10T12:33:27.664Z,16.71
2023-04-10T12:34:27.672Z,21.22
2023-04-10T12:35:27.674Z,24.44
2023-04-10T12:36:27.637Z,17.35
2023-04-10T12:37:27.615Z,21.54
2023-04-10T12:38:27.622Z,21.54
2023-04-10T12:39:27.594Z,21.54
2023-04-10T12:40:27.625Z,18.32
2023-04-10T12:41:27.578Z,26.05
2023-04-10T12:42:27.556Z,21.54
2023-04-10T12:43:27.578Z,22.19
2023-04-10T12:44:27.560Z,21.54
2023-04-10T12:45:27.598Z,21.54
2023-04-10T12:46:27.754Z,25.41
2023-04-10T12:47:27.557Z,21.87
2023-04-10T12:48:27.495Z,17.68
2023-04-10T12:49:27.515Z,22.19
2023-04-10T12:50:27.475Z,21.54
2023-04-10T12:51:27.508Z,21.22
2023-04-10T12:52:27.463Z,23.48
2023-04-10T12:53:27.479Z,21.54
2023-04-10T12:54:27.437Z,26.05
2023-04-10T12:55:27.470Z,27.34
2023-04-10T12:56:27.422Z,21.22
2023-04-10T12:57:27.418Z,24.12
2023-04-10T12:58:27.406Z,26.70
2023-04-10T12:59:27.448Z,21.22
2023-04-10T13:00:27.377Z,27.34
2023-04-10T13:01:27.400Z,21.22
2023-04-10T13:02:27.539Z,21.22
2023-04-10T13:03:27.547Z,17.03
2023-04-10T13:04:27.491Z,25.09
2023-04-10T13:05:27.334Z,21.54
2023-04-10T13:06:27.305Z,30.57